createdAt,value
2023-03-01T00:01:51.465Z,96144.00
2023-03-01T00:07:19.424Z,96140.00
2023-03-01T00:12:48.524Z,96139.00
2023-03-01T00:18:16.936Z,96135.00
2023-03-01T00:23:45.158Z,96138.00
2023-03-01T00:29:13.327Z,96133.00
2023-03-01T00:34:41.128Z,96131.00
2023-03-01T00:40:11.281Z,96130.00
2023-03-01T00:45:39.515Z,96122.00
2023-03-01T00:51:08.692Z,96119.00
2023-03-01T00:56:36.582Z,96117.00
2023-03-01T01:02:05.649Z,96097.00
2023-03-01T01:07:33.780Z,96102.00
2023-03-01T01:13:01.950Z,96090.00
2023-03-01T01:18:32.703Z,96086.00
2023-03-01T01:24:01.038Z,96085.00
2023-03-01T01:29:29.083Z,96080.00
2023-03-01T01:34:57.039Z,96065.00
2023-03-01T01:40:24.937Z,96070.00
2023-03-01T01:46:07.665Z,96065.00
2023-03-01T01:51:43.590Z,96053.00
2023-03-01T01:57:29.066Z,96057.00
2023-03-01T02:03:02.560Z,96039.00
2023-03-01T02:08:38.331Z,96033.00
2023-03-01T02:14:07.112Z,96034.00
2023-03-01T02:20:08.035Z,96035.00
2023-03-01T02:26:10.172Z,96025.00
2023-03-01T02:31:44.540Z,96029.00
2023-03-01T02:37:21.629Z,96032.00
2023-03-01T02:42:56.500Z,96019.00
2023-03-01T02:48:24.869Z,96024.00
2023-03-01T02:54:08.905Z,96019.00
2023-03-01T02:59:43.567Z,96024.00
2023-03-01T03:05:17.307Z,96021.00
2023-03-01T03:10:45.755Z,96025.00
2023-03-01T03:16:15.373Z,96012.00
2023-03-01T03:21:44.350Z,96018.00
2023-03-01T03:27:12.549Z,96005.00
2023-03-01T03:32:41.641Z,96015.00
2023-03-01T03:38:18.686Z,96012.00
2023-03-01T03:43:46.700Z,96013.00
2023-03-01T03:49:14.704Z,95999.00
2023-03-01T03:54:42.551Z,95998.00
2023-03-01T04:00:13.892Z,95993.00
2023-03-01T04:05:43.292Z,95990.00
2023-03-01T04:11:29.356Z,95979.00
2023-03-01T04:16:57.526Z,95986.00
2023-03-01T04:22:30.639Z,95983.00
2023-03-01T04:27:58.662Z,95987.00
2023-03-01T04:33:27.287Z,95980.00
2023-03-01T04:39:00.874Z,95978.00
2023-03-01T04:44:32.168Z,95973.00
2023-03-01T04:50:00.957Z,95971.00
2023-03-01T04:55:29.805Z,95972.00
2023-03-01T05:00:59.072Z,95973.00
2023-03-01T05:06:27.272Z,95976.00
2023-03-01T05:11:54.907Z,95974.00
2023-03-01T05:17:23.145Z,95961.00
2023-03-01T05:22:52.872Z,95961.00
2023-03-01T05:28:21.494Z,95958.00
2023-03-01T05:33:51.437Z,95970.00
2023-03-01T05:39:19.146Z,95957.00
2023-03-01T05:44:49.525Z,95953.00
2023-03-01T05:50:20.064Z,95938.00
2023-03-01T05:55:48.597Z,95946.00
2023-03-01T06:01:16.899Z,95954.00
2023-03-01T06:06:45.034Z,95957.00
2023-03-01T06:12:14.019Z,95965.00
2023-03-01T06:17:47.681Z,95959.00
2023-03-01T06:23:15.993Z,95954.00
2023-03-01T06:28:47.207Z,95963.00
2023-03-01T06:34:16.325Z,95972.00
2023-03-01T06:39:44.693Z,95970.00
2023-03-01T06:45:13.148Z,95958.00
2023-03-01T06:50:42.557Z,95960.00
2023-03-01T06:56:10.954Z,95964.00
2023-03-01T07:01:40.139Z,95975.00
2023-03-01T07:07:08.320Z,95971.00
2023-03-01T07:12:36.086Z,95962.00
2023-03-01T07:18:04.139Z,95970.00
2023-03-01T07:23:33.145Z,95949.00
2023-03-01T07:29:03.801Z,95955.00
2023-03-01T07:34:32.208Z,95961.00
2023-03-01T07:40:03.359Z,95951.00
2023-03-01T07:45:31.241Z,95941.00
2023-03-01T07:51:05.038Z,95944.00
2023-03-01T07:56:33.722Z,95942.00
2023-03-01T08:02:01.588Z,95939.00
2023-03-01T08:07:35.300Z,95939.00
2023-03-01T08:13:03.852Z,95936.00
2023-03-01T08:18:33.101Z,95934.00
2023-03-01T08:24:00.955Z,95925.00
2023-03-01T08:29:32.949Z,95942.00
2023-03-01T08:35:01.295Z,95930.00
2023-03-01T08:40:29.133Z,95916.00
2023-03-01T08:45:57.169Z,95918.00
2023-03-01T08:51:26.983Z,95913.00
2023-03-01T08:56:56.833Z,95915.00
2023-03-01T09:02:25.116Z,95912.00
2023-03-01T09:07:53.280Z,95910.00
2023-03-01T09:13:21.449Z,95918.00
2023-03-01T09:18:54.807Z,95910.00
2023-03-01T09:24:25.756Z,95908.00
2023-03-01T09:29:53.964Z,95906.00
2023-03-01T09:35:23.737Z,95904.00
2023-03-01T09:40:51.948Z,95913.00
2023-03-01T09:46:20.180Z,95898.00
2023-03-01T09:52:33.605Z,95909.00
2023-03-01T09:58:30.802Z,95899.00
2023-03-01T10:04:07.532Z,95883.00
2023-03-01T10:09:38.401Z,95896.00
2023-03-01T10:15:18.265Z,95886.00
2023-03-01T10:20:58.945Z,95873.00
2023-03-01T10:26:34.531Z,95879.00
2023-03-01T10:32:20.123Z,95874.00
2023-03-01T10:38:10.621Z,95885.00
2023-03-01T10:43:57.642Z,95869.00
2023-03-01T10:49:27.292Z,95867.00
2023-03-01T10:55:39.685Z,95854.00
2023-03-01T11:01:28.231Z,95835.00
2023-03-01T11:07:01.957Z,95826.00
2023-03-01T11:12:33.703Z,95818.00
2023-03-01T11:18:13.529Z,95805.00
2023-03-01T11:23:48.550Z,95796.00
2023-03-01T11:29:49.235Z,95794.00
2023-03-01T11:35:31.734Z,95787.00
2023-03-01T11:41:22.441Z,95778.00
2023-03-01T11:47:09.754Z,95776.00
2023-03-01T11:53:08.753Z,95770.00
2023-03-01T11:58:53.625Z,95764.00
2023-03-01T12:05:00.223Z,95773.00
2023-03-01T12:10:36.263Z,95749.00
2023-03-01T12:16:39.904Z,95744.00
2023-03-01T12:22:15.960Z,95732.00
2023-03-01T12:28:17.314Z,95738.00
2023-03-01T12:34:26.276Z,95721.00
2023-03-01T12:40:45.248Z,95706.00
2023-03-01T12:46:48.719Z,95717.00
2023-03-01T12:52:45.526Z,95721.00
2023-03-01T12:58:58.346Z,95702.00
2023-03-01T13:04:33.883Z,95710.00
2023-03-01T13:10:42.991Z,95703.00
2023-03-01T13:16:30.338Z,95708.00
2023-03-01T13:21:59.143Z,95711.00
2023-03-01T13:27:30.329Z,95704.00
2023-03-01T13:33:29.725Z,95699.00
2023-03-01T13:39:00.931Z,95693.00
2023-03-01T13:44:39.976Z,95707.00
2023-03-01T13:50:20.756Z,95703.00
2023-03-01T13:56:03.320Z,95685.00
2023-03-01T14:01:36.138Z,95692.00
2023-03-01T14:07:26.097Z,95686.00
2023-03-01T14:13:15.804Z,95682.00
2023-03-01T14:19:07.140Z,95680.00
2023-03-01T14:24:42.453Z,95665.00
2023-03-01T14:30:24.205Z,95658.00
2023-03-01T14:35:59.519Z,95645.00
2023-03-01T14:41:32.646Z,95627.00
2023-03-01T14:47:03.257Z,95649.00
2023-03-01T14:52:44.051Z,95641.00
2023-03-01T14:58:23.831Z,95642.00
2023-03-01T15:03:52.613Z,95638.00
2023-03-01T15:09:21.142Z,95640.00
2023-03-01T15:15:03.709Z,95645.00
2023-03-01T15:20:37.136Z,95642.00
2023-03-01T15:26:38.917Z,95642.00
2023-03-01T15:32:32.341Z,95637.00
2023-03-01T15:38:01.687Z,95630.00
2023-03-01T15:43:45.944Z,95645.00
2023-03-01T15:49:54.292Z,95639.00
2023-03-01T15:55:30.782Z,95630.00
2023-03-01T16:01:02.678Z,95634.00
2023-03-01T16:06:34.898Z,95630.00
2023-03-01T16:12:03.065Z,95623.00
2023-03-01T16:17:30.932Z,95623.00
2023-03-01T16:23:06.600Z,95619.00
2023-03-01T16:28:34.783Z,95619.00
2023-03-01T16:34:02.931Z,95619.00
2023-03-01T16:39:31.741Z,95623.00
2023-03-01T16:44:59.610Z,95614.00
2023-03-01T16:50:29.790Z,95615.00
2023-03-01T16:56:01.240Z,95627.00
2023-03-01T17:01:38.513Z,95631.00
2023-03-01T17:07:10.606Z,95641.00
2023-03-01T17:12:41.178Z,95648.00
2023-03-01T17:18:12.959Z,95637.00
2023-03-01T17:23:45.250Z,95649.00
2023-03-01T17:29:13.920Z,95661.00
2023-03-01T17:34:42.125Z,95662.00
2023-03-01T17:40:11.961Z,95661.00
2023-03-01T17:45:41.255Z,95671.00
2023-03-01T17:51:12.040Z,95663.00
2023-03-01T17:56:42.691Z,95667.00
2023-03-01T18:02:13.643Z,95669.00
2023-03-01T18:07:42.215Z,95665.00
2023-03-01T18:13:14.914Z,95677.00
2023-03-01T18:18:45.203Z,95659.00
2023-03-01T18:24:14.509Z,95669.00
2023-03-01T18:29:43.564Z,95675.00
2023-03-01T18:35:14.083Z,95665.00
2023-03-01T18:40:49.001Z,95652.00
2023-03-01T18:46:20.442Z,95654.00
2023-03-01T18:51:50.771Z,95654.00
2023-03-01T18:57:22.439Z,95654.00
2023-03-01T19:02:50.561Z,95652.00
2023-03-01T19:08:19.612Z,95652.00
2023-03-01T19:13:52.118Z,95653.00
2023-03-01T19:19:22.462Z,95644.00
2023-03-01T19:24:51.027Z,95653.00
2023-03-01T19:30:19.650Z,95650.00
2023-03-01T19:35:49.326Z,95643.00
2023-03-01T19:41:19.361Z,95655.00
2023-03-01T19:46:51.061Z,95658.00
2023-03-01T19:52:20.373Z,95658.00
2023-03-01T19:57:48.675Z,95666.00
2023-03-01T20:03:21.302Z,95651.00
2023-03-01T20:08:51.401Z,95655.00
2023-03-01T20:14:23.596Z,95654.00
2023-03-01T20:19:52.774Z,95643.00
2023-03-01T20:25:25.752Z,95632.00
2023-03-01T20:31:06.526Z,95630.00
2023-03-01T20:36:39.436Z,95632.00
2023-03-01T20:42:07.583Z,95627.00
2023-03-01T20:47:35.802Z,95629.00
2023-03-01T20:53:10.853Z,95629.00
2023-03-01T20:59:09.792Z,95628.00
2023-03-01T21:04:41.051Z,95633.00
2023-03-01T21:10:11.405Z,95623.00
2023-03-01T21:15:42.778Z,95614.00
2023-03-01T21:21:13.468Z,95608.00
2023-03-01T21:26:55.552Z,95615.00
2023-03-01T21:32:25.214Z,95616.00
2023-03-01T21:37:57.964Z,95607.00
2023-03-01T21:43:26.426Z,95593.00
2023-03-01T21:48:56.002Z,95596.00
2023-03-01T21:54:24.324Z,95597.00
2023-03-01T21:59:53.474Z,95584.00
2023-03-01T22:05:21.900Z,95596.00
2023-03-01T22:10:50.635Z,95587.00
2023-03-01T22:16:25.578Z,95583.00
2023-03-01T22:21:56.724Z,95587.00
2023-03-01T22:27:24.997Z,95583.00
2023-03-01T22:33:01.715Z,95576.00
2023-03-01T22:38:45.724Z,95568.00
2023-03-01T22:44:23.103Z,95566.00
2023-03-01T22:49:57.550Z,95563.00
2023-03-01T22:55:28.501Z,95561.00
2023-03-01T23:01:00.156Z,95552.00
2023-03-01T23:06:33.066Z,95552.00
2023-03-01T23:12:06.827Z,95556.00
2023-03-01T23:17:34.990Z,95550.00
2023-03-01T23:23:03.308Z,95551.00
2023-03-01T23:28:31.777Z,95555.00
2023-03-01T23:33:59.934Z,95553.00
2023-03-01T23:39:29.957Z,95553.00
2023-03-01T23:44:57.821Z,95546.00
2023-03-01T23:50:26.102Z,95550.00
2023-03-01T23:55:55.217Z,95537.00
